sensor_id;sensor_type;location;lat;lon;timestamp;temperature;humidity
3550;DHT22;45572;48.804;8.330;2022-12-18T00:01:23;-4.30;90.70
3550;DHT22;45572;48.804;8.330;2022-12-18T00:03:54;-4.30;90.50
3550;DHT22;45572;48.804;8.330;2022-12-18T00:06:23;-4.40;90.50
3550;DHT22;45572;48.804;8.330;2022-12-18T00:08:51;-4.40;90.70
3550;DHT22;45572;48.804;8.330;2022-12-18T00:11:22;-4.40;90.80
3550;DHT22;45572;48.804;8.330;2022-12-18T00:13:51;-4.30;90.90
3550;DHT22;45572;48.804;8.330;2022-12-18T00:16:21;-4.30;90.80
3550;DHT22;45572;48.804;8.330;2022-12-18T00:18:50;-4.30;90.20
3550;DHT22;45572;48.804;8.330;2022-12-18T00:21:20;-4.30;89.80
3550;DHT22;45572;48.804;8.330;2022-12-18T00:23:49;-4.30;89.90
3550;DHT22;45572;48.804;8.330;2022-12-18T00:26:22;-4.40;89.60
3550;DHT22;45572;48.804;8.330;2022-12-18T00:28:58;-4.30;90.00
3550;DHT22;45572;48.804;8.330;2022-12-18T00:31:27;-4.30;89.90
3550;DHT22;45572;48.804;8.330;2022-12-18T00:33:57;-4.30;89.50
3550;DHT22;45572;48.804;8.330;2022-12-18T00:36:28;-4.30;89.30
3550;DHT22;45572;48.804;8.330;2022-12-18T00:38:59;-4.50;89.00
3550;DHT22;45572;48.804;8.330;2022-12-18T00:41:27;-4.70;89.20
3550;DHT22;45572;48.804;8.330;2022-12-18T00:44:11;-4.80;89.60
3550;DHT22;45572;48.804;8.330;2022-12-18T00:46:40;-4.80;89.80
3550;DHT22;45572;48.804;8.330;2022-12-18T00:49:08;-4.80;90.00
3550;DHT22;45572;48.804;8.330;2022-12-18T00:51:37;-4.80;90.00
3550;DHT22;45572;48.804;8.330;2022-12-18T00:54:04;-4.80;89.90
3550;DHT22;45572;48.804;8.330;2022-12-18T00:56:32;-4.70;90.10
3550;DHT22;45572;48.804;8.330;2022-12-18T00:59:00;-4.80;90.10
3550;DHT22;45572;48.804;8.330;2022-12-18T01:01:28;-4.70;90.40
3550;DHT22;45572;48.804;8.330;2022-12-18T01:03:57;-4.70;90.40
3550;DHT22;45572;48.804;8.330;2022-12-18T01:06:25;-4.70;90.10
3550;DHT22;45572;48.804;8.330;2022-12-18T01:08:54;-4.70;90.30
3550;DHT22;45572;48.804;8.330;2022-12-18T01:11:22;-4.70;90.30
3550;DHT22;45572;48.804;8.330;2022-12-18T01:13:51;-4.70;90.10
3550;DHT22;45572;48.804;8.330;2022-12-18T01:16:22;-4.70;90.00
3550;DHT22;45572;48.804;8.330;2022-12-18T01:18:52;-4.70;90.30
3550;DHT22;45572;48.804;8.330;2022-12-18T01:21:21;-4.70;90.30
3550;DHT22;45572;48.804;8.330;2022-12-18T01:23:51;-4.70;90.30
3550;DHT22;45572;48.804;8.330;2022-12-18T01:26:21;-4.70;90.30
3550;DHT22;45572;48.804;8.330;2022-12-18T01:28:50;-4.70;89.90
3550;DHT22;45572;48.804;8.330;2022-12-18T01:31:20;-4.70;89.50
3550;DHT22;45572;48.804;8.330;2022-12-18T01:33:49;-4.90;89.30
3550;DHT22;45572;48.804;8.330;2022-12-18T01:36:20;-5.10;89.60
3550;DHT22;45572;48.804;8.330;2022-12-18T01:38:49;-5.00;90.10
3550;DHT22;45572;48.804;8.330;2022-12-18T01:41:19;-5.00;90.20
3550;DHT22;45572;48.804;8.330;2022-12-18T01:43:52;-5.00;90.20
3550;DHT22;45572;48.804;8.330;2022-12-18T01:46:22;-4.90;89.90
3550;DHT22;45572;48.804;8.330;2022-12-18T01:48:57;-4.90;89.90
3550;DHT22;45572;48.804;8.330;2022-12-18T01:51:27;-5.00;89.70
3550;DHT22;45572;48.804;8.330;2022-12-18T01:53:57;-5.00;89.90
3550;DHT22;45572;48.804;8.330;2022-12-18T01:56:26;-5.00;89.90
3550;DHT22;45572;48.804;8.330;2022-12-18T01:58:59;-4.90;89.80
3550;DHT22;45572;48.804;8.330;2022-12-18T02:01:29;-4.90;89.60
3550;DHT22;45572;48.804;8.330;2022-12-18T02:04:19;-4.90;89.70
3550;DHT22;45572;48.804;8.330;2022-12-18T02:06:52;-4.90;89.50
3550;DHT22;45572;48.804;8.330;2022-12-18T02:09:28;-4.80;89.60
3550;DHT22;45572;48.804;8.330;2022-12-18T02:12:03;-4.80;89.50
3550;DHT22;45572;48.804;8.330;2022-12-18T02:14:40;-4.80;89.40
3550;DHT22;45572;48.804;8.330;2022-12-18T02:17:11;-4.70;89.30
3550;DHT22;45572;48.804;8.330;2022-12-18T02:19:52;-4.70;89.20
3550;DHT22;45572;48.804;8.330;2022-12-18T02:22:29;-4.80;89.20
3550;DHT22;45572;48.804;8.330;2022-12-18T02:25:10;-4.90;89.30
3550;DHT22;45572;48.804;8.330;2022-12-18T02:27:41;-5.00;89.20
3550;DHT22;45572;48.804;8.330;2022-12-18T02:30:12;-5.10;89.70
3550;DHT22;45572;48.804;8.330;2022-12-18T02:32:42;-5.00;90.00
3550;DHT22;45572;48.804;8.330;2022-12-18T02:35:15;-4.90;89.90
3550;DHT22;45572;48.804;8.330;2022-12-18T02:37:46;-4.90;89.70
3550;DHT22;45572;48.804;8.330;2022-12-18T02:40:17;-5.00;89.50
3550;DHT22;45572;48.804;8.330;2022-12-18T02:42:47;-5.00;89.80
3550;DHT22;45572;48.804;8.330;2022-12-18T02:45:17;-5.00;90.00
3550;DHT22;45572;48.804;8.330;2022-12-18T02:47:48;-4.90;90.10
3550;DHT22;45572;48.804;8.330;2022-12-18T02:50:21;-4.90;90.10
3550;DHT22;45572;48.804;8.330;2022-12-18T02:53:01;-4.90;90.10
3550;DHT22;45572;48.804;8.330;2022-12-18T02:55:43;-4.80;90.00
3550;DHT22;45572;48.804;8.330;2022-12-18T02:58:19;-4.70;90.00
3550;DHT22;45572;48.804;8.330;2022-12-18T03:00:56;-4.70;89.90
3550;DHT22;45572;48.804;8.330;2022-12-18T03:03:31;-4.70;89.80
3550;DHT22;45572;48.804;8.330;2022-12-18T03:06:06;-4.60;89.90
3550;DHT22;45572;48.804;8.330;2022-12-18T03:08:38;-4.60;89.80
3550;DHT22;45572;48.804;8.330;2022-12-18T03:11:10;-4.60;89.70
3550;DHT22;45572;48.804;8.330;2022-12-18T03:13:44;-4.70;89.50
3550;DHT22;45572;48.804;8.330;2022-12-18T03:16:16;-4.70;89.30
3550;DHT22;45572;48.804;8.330;2022-12-18T03:18:47;-4.70;89.40
3550;DHT22;45572;48.804;8.330;2022-12-18T03:21:18;-4.80;89.70
3550;DHT22;45572;48.804;8.330;2022-12-18T03:23:49;-4.70;89.80
3550;DHT22;45572;48.804;8.330;2022-12-18T03:26:23;-4.70;89.90
3550;DHT22;45572;48.804;8.330;2022-12-18T03:29:02;-4.70;89.90
3550;DHT22;45572;48.804;8.330;2022-12-18T03:31:32;-4.80;89.90
3550;DHT22;45572;48.804;8.330;2022-12-18T03:34:03;-4.80;90.30
3550;DHT22;45572;48.804;8.330;2022-12-18T03:36:39;-4.80;90.30
3550;DHT22;45572;48.804;8.330;2022-12-18T03:39:08;-4.80;90.30
3550;DHT22;45572;48.804;8.330;2022-12-18T03:41:43;-4.80;90.10
3550;DHT22;45572;48.804;8.330;2022-12-18T03:44:27;-4.90;90.10
3550;DHT22;45572;48.804;8.330;2022-12-18T03:47:02;-4.90;90.20
3550;DHT22;45572;48.804;8.330;2022-12-18T03:49:38;-4.90;90.30
3550;DHT22;45572;48.804;8.330;2022-12-18T03:52:10;-4.90;90.30
3550;DHT22;45572;48.804;8.330;2022-12-18T03:54:41;-5.00;90.10
3550;DHT22;45572;48.804;8.330;2022-12-18T03:57:16;-5.20;90.30
3550;DHT22;45572;48.804;8.330;2022-12-18T03:59:50;-5.30;90.70
3550;DHT22;45572;48.804;8.330;2022-12-18T04:02:23;-5.30;90.80
3550;DHT22;45572;48.804;8.330;2022-12-18T04:04:56;-5.30;91.00
3550;DHT22;45572;48.804;8.330;2022-12-18T04:07:27;-5.30;90.90
3550;DHT22;45572;48.804;8.330;2022-12-18T04:09:59;-5.50;90.80
3550;DHT22;45572;48.804;8.330;2022-12-18T04:12:29;-5.50;91.20
3550;DHT22;45572;48.804;8.330;2022-12-18T04:14:59;-5.30;91.40
3550;DHT22;45572;48.804;8.330;2022-12-18T04:17:26;-5.20;91.30
3550;DHT22;45572;48.804;8.330;2022-12-18T04:19:54;-5.10;91.20
3550;DHT22;45572;48.804;8.330;2022-12-18T04:22:24;-5.00;90.90
3550;DHT22;45572;48.804;8.330;2022-12-18T04:24:57;-4.90;90.60
3550;DHT22;45572;48.804;8.330;2022-12-18T04:27:32;-4.90;90.50
3550;DHT22;45572;48.804;8.330;2022-12-18T04:30:03;-4.90;90.30
3550;DHT22;45572;48.804;8.330;2022-12-18T04:32:33;-4.90;89.90
3550;DHT22;45572;48.804;8.330;2022-12-18T04:35:01;-4.90;89.80
3550;DHT22;45572;48.804;8.330;2022-12-18T04:37:31;-4.80;89.80
3550;DHT22;45572;48.804;8.330;2022-12-18T04:39:59;-4.90;89.80
3550;DHT22;45572;48.804;8.330;2022-12-18T04:42:35;-4.80;89.70
3550;DHT22;45572;48.804;8.330;2022-12-18T04:45:05;-4.80;89.60
3550;DHT22;45572;48.804;8.330;2022-12-18T04:47:33;-4.80;89.50
3550;DHT22;45572;48.804;8.330;2022-12-18T04:50:02;-4.70;89.40
3550;DHT22;45572;48.804;8.330;2022-12-18T04:52:31;-4.70;89.30
3550;DHT22;45572;48.804;8.330;2022-12-18T04:54:59;-4.70;89.10
3550;DHT22;45572;48.804;8.330;2022-12-18T04:57:27;-4.80;89.00
3550;DHT22;45572;48.804;8.330;2022-12-18T04:59:54;-4.90;89.10
3550;DHT22;45572;48.804;8.330;2022-12-18T05:02:23;-5.20;89.60
3550;DHT22;45572;48.804;8.330;2022-12-18T05:04:51;-5.20;90.20
3550;DHT22;45572;48.804;8.330;2022-12-18T05:07:19;-5.20;90.40
3550;DHT22;45572;48.804;8.330;2022-12-18T05:09:47;-5.20;90.80
3550;DHT22;45572;48.804;8.330;2022-12-18T05:12:15;-5.20;90.80
3550;DHT22;45572;48.804;8.330;2022-12-18T05:14:42;-5.00;90.90
3550;DHT22;45572;48.804;8.330;2022-12-18T05:17:10;-5.00;91.10
3550;DHT22;45572;48.804;8.330;2022-12-18T05:19:40;-4.90;91.00
3550;DHT22;45572;48.804;8.330;2022-12-18T05:22:07;-4.90;90.80
3550;DHT22;45572;48.804;8.330;2022-12-18T05:24:35;-4.90;90.60
3550;DHT22;45572;48.804;8.330;2022-12-18T05:27:03;-5.10;90.30
3550;DHT22;45572;48.804;8.330;2022-12-18T05:29:31;-5.10;90.60
3550;DHT22;45572;48.804;8.330;2022-12-18T05:31:58;-5.10;90.80
3550;DHT22;45572;48.804;8.330;2022-12-18T05:34:27;-5.10;90.80
3550;DHT22;45572;48.804;8.330;2022-12-18T05:36:56;-5.10;90.70
3550;DHT22;45572;48.804;8.330;2022-12-18T05:39:23;-5.20;90.70
3550;DHT22;45572;48.804;8.330;2022-12-18T05:41:51;-5.20;90.80
3550;DHT22;45572;48.804;8.330;2022-12-18T05:44:19;-5.10;90.80
3550;DHT22;45572;48.804;8.330;2022-12-18T05:46:46;-5.00;90.70
3550;DHT22;45572;48.804;8.330;2022-12-18T05:49:14;-4.90;90.50
3550;DHT22;45572;48.804;8.330;2022-12-18T05:51:42;-5.00;90.10
3550;DHT22;45572;48.804;8.330;2022-12-18T05:54:11;-5.00;89.90
3550;DHT22;45572;48.804;8.330;2022-12-18T05:56:39;-5.10;89.70
3550;DHT22;45572;48.804;8.330;2022-12-18T05:59:14;-5.00;90.10
3550;DHT22;45572;48.804;8.330;2022-12-18T06:01:41;-4.90;90.20
3550;DHT22;45572;48.804;8.330;2022-12-18T06:04:11;-4.80;90.00
3550;DHT22;45572;48.804;8.330;2022-12-18T06:06:38;-4.80;89.70
3550;DHT22;45572;48.804;8.330;2022-12-18T06:09:06;-4.70;89.60
3550;DHT22;45572;48.804;8.330;2022-12-18T06:11:37;-4.70;89.50
3550;DHT22;45572;48.804;8.330;2022-12-18T06:14:06;-4.70;89.30
3550;DHT22;45572;48.804;8.330;2022-12-18T06:16:34;-4.60;89.40
3550;DHT22;45572;48.804;8.330;2022-12-18T06:19:03;-4.50;89.30
3550;DHT22;45572;48.804;8.330;2022-12-18T06:21:32;-4.70;89.00
3550;DHT22;45572;48.804;8.330;2022-12-18T06:24:00;-4.70;89.20
3550;DHT22;45572;48.804;8.330;2022-12-18T06:26:28;-4.70;89.50
3550;DHT22;45572;48.804;8.330;2022-12-18T06:28:57;-4.70;89.50
3550;DHT22;45572;48.804;8.330;2022-12-18T06:31:25;-4.80;89.70
3550;DHT22;45572;48.804;8.330;2022-12-18T06:33:53;-4.70;89.90
3550;DHT22;45572;48.804;8.330;2022-12-18T06:36:21;-4.60;90.00
3550;DHT22;45572;48.804;8.330;2022-12-18T06:38:49;-4.60;89.90
3550;DHT22;45572;48.804;8.330;2022-12-18T06:41:19;-4.60;89.90
3550;DHT22;45572;48.804;8.330;2022-12-18T06:43:47;-4.60;89.90
3550;DHT22;45572;48.804;8.330;2022-12-18T06:46:16;-4.60;89.60
3550;DHT22;45572;48.804;8.330;2022-12-18T06:48:47;-4.60;89.50
3550;DHT22;45572;48.804;8.330;2022-12-18T06:51:17;-4.60;89.50
3550;DHT22;45572;48.804;8.330;2022-12-18T06:53:45;-4.70;89.40
3550;DHT22;45572;48.804;8.330;2022-12-18T06:56:13;-4.70;89.50
3550;DHT22;45572;48.804;8.330;2022-12-18T06:58:40;-4.60;89.70
3550;DHT22;45572;48.804;8.330;2022-12-18T07:01:09;-4.60;89.90
3550;DHT22;45572;48.804;8.330;2022-12-18T07:03:40;-4.60;89.70
3550;DHT22;45572;48.804;8.330;2022-12-18T07:06:14;-4.50;89.60
3550;DHT22;45572;48.804;8.330;2022-12-18T07:08:43;-4.60;89.30
3550;DHT22;45572;48.804;8.330;2022-12-18T07:11:11;-4.70;89.60
3550;DHT22;45572;48.804;8.330;2022-12-18T07:13:38;-4.70;89.70
3550;DHT22;45572;48.804;8.330;2022-12-18T07:16:09;-4.60;89.80
3550;DHT22;45572;48.804;8.330;2022-12-18T07:18:49;-4.70;89.50
3550;DHT22;45572;48.804;8.330;2022-12-18T07:21:18;-4.70;89.40
3550;DHT22;45572;48.804;8.330;2022-12-18T07:23:46;-4.70;89.60
3550;DHT22;45572;48.804;8.330;2022-12-18T07:26:16;-4.70;89.70
3550;DHT22;45572;48.804;8.330;2022-12-18T07:28:44;-4.70;89.40
3550;DHT22;45572;48.804;8.330;2022-12-18T07:31:14;-4.70;89.30
3550;DHT22;45572;48.804;8.330;2022-12-18T07:33:43;-4.60;89.30
3550;DHT22;45572;48.804;8.330;2022-12-18T07:36:13;-4.70;89.10
3550;DHT22;45572;48.804;8.330;2022-12-18T07:38:41;-4.60;89.30
3550;DHT22;45572;48.804;8.330;2022-12-18T07:41:10;-4.70;89.30
3550;DHT22;45572;48.804;8.330;2022-12-18T07:43:39;-4.60;89.30
3550;DHT22;45572;48.804;8.330;2022-12-18T07:46:09;-4.60;89.30
3550;DHT22;45572;48.804;8.330;2022-12-18T07:48:39;-4.60;89.30
3550;DHT22;45572;48.804;8.330;2022-12-18T07:51:07;-4.50;89.20
3550;DHT22;45572;48.804;8.330;2022-12-18T07:53:36;-4.50;89.30
3550;DHT22;45572;48.804;8.330;2022-12-18T07:56:07;-4.40;88.90
3550;DHT22;45572;48.804;8.330;2022-12-18T07:58:55;-4.50;88.70
3550;DHT22;45572;48.804;8.330;2022-12-18T08:01:23;-4.60;88.40
3550;DHT22;45572;48.804;8.330;2022-12-18T08:03:52;-4.50;88.80
3550;DHT22;45572;48.804;8.330;2022-12-18T08:06:20;-4.50;88.70
3550;DHT22;45572;48.804;8.330;2022-12-18T08:08:52;-4.60;88.50
3550;DHT22;45572;48.804;8.330;2022-12-18T08:11:20;-4.70;88.70
3550;DHT22;45572;48.804;8.330;2022-12-18T08:13:47;-4.70;88.70
3550;DHT22;45572;48.804;8.330;2022-12-18T08:16:15;-4.70;88.90
3550;DHT22;45572;48.804;8.330;2022-12-18T08:18:44;-5.00;89.00
3550;DHT22;45572;48.804;8.330;2022-12-18T08:21:17;-5.50;90.00
3550;DHT22;45572;48.804;8.330;2022-12-18T08:23:47;-5.30;91.00
3550;DHT22;45572;48.804;8.330;2022-12-18T08:26:18;-5.20;91.10
3550;DHT22;45572;48.804;8.330;2022-12-18T08:28:47;-5.00;90.90
3550;DHT22;45572;48.804;8.330;2022-12-18T08:31:16;-4.90;90.50
3550;DHT22;45572;48.804;8.330;2022-12-18T08:33:44;-4.80;90.00
3550;DHT22;45572;48.804;8.330;2022-12-18T08:36:12;-4.90;89.80
3550;DHT22;45572;48.804;8.330;2022-12-18T08:38:40;-4.90;89.90
3550;DHT22;45572;48.804;8.330;2022-12-18T08:41:10;-4.80;90.00
3550;DHT22;45572;48.804;8.330;2022-12-18T08:43:39;-4.80;89.80
3550;DHT22;45572;48.804;8.330;2022-12-18T08:46:23;-4.90;89.80
3550;DHT22;45572;48.804;8.330;2022-12-18T08:48:52;-4.80;90.30
3550;DHT22;45572;48.804;8.330;2022-12-18T08:51:20;-4.50;90.20
3550;DHT22;45572;48.804;8.330;2022-12-18T08:53:48;-4.50;89.30
3550;DHT22;45572;48.804;8.330;2022-12-18T08:56:16;-4.30;89.10
3550;DHT22;45572;48.804;8.330;2022-12-18T08:58:45;-4.10;88.80
3550;DHT22;45572;48.804;8.330;2022-12-18T09:01:13;-4.00;88.30
3550;DHT22;45572;48.804;8.330;2022-12-18T09:03:41;-4.00;87.80
3550;DHT22;45572;48.804;8.330;2022-12-18T09:06:13;-3.90;87.90
3550;DHT22;45572;48.804;8.330;2022-12-18T09:08:42;-3.80;87.70
3550;DHT22;45572;48.804;8.330;2022-12-18T09:11:13;-3.60;87.30
3550;DHT22;45572;48.804;8.330;2022-12-18T09:13:42;-3.50;86.80
3550;DHT22;45572;48.804;8.330;2022-12-18T09:16:11;-3.30;86.50
3550;DHT22;45572;48.804;8.330;2022-12-18T09:18:38;-3.20;86.10
3550;DHT22;45572;48.804;8.330;2022-12-18T09:21:08;-3.10;85.60
3550;DHT22;45572;48.804;8.330;2022-12-18T09:23:36;-3.00;85.70
3550;DHT22;45572;48.804;8.330;2022-12-18T09:26:04;-2.90;86.00
3550;DHT22;45572;48.804;8.330;2022-12-18T09:28:32;-2.90;85.70
3550;DHT22;45572;48.804;8.330;2022-12-18T09:31:04;-2.70;85.40
3550;DHT22;45572;48.804;8.330;2022-12-18T09:33:33;-2.60;84.90
3550;DHT22;45572;48.804;8.330;2022-12-18T09:36:04;-2.70;84.40
3550;DHT22;45572;48.804;8.330;2022-12-18T09:38:34;-2.80;84.40
3550;DHT22;45572;48.804;8.330;2022-12-18T09:41:05;-2.80;84.60
3550;DHT22;45572;48.804;8.330;2022-12-18T09:43:36;-2.80;84.90
3550;DHT22;45572;48.804;8.330;2022-12-18T09:46:10;-2.80;85.00
3550;DHT22;45572;48.804;8.330;2022-12-18T09:48:44;-2.80;84.50
3550;DHT22;45572;48.804;8.330;2022-12-18T09:51:15;-2.80;84.50
3550;DHT22;45572;48.804;8.330;2022-12-18T09:53:58;-2.70;84.80
3550;DHT22;45572;48.804;8.330;2022-12-18T09:56:29;-2.60;84.80
3550;DHT22;45572;48.804;8.330;2022-12-18T09:59:00;-2.70;84.40
3550;DHT22;45572;48.804;8.330;2022-12-18T10:01:30;-2.60;84.40
3550;DHT22;45572;48.804;8.330;2022-12-18T10:04:11;-2.50;84.50
3550;DHT22;45572;48.804;8.330;2022-12-18T10:06:43;-2.50;84.10
3550;DHT22;45572;48.804;8.330;2022-12-18T10:09:19;-2.50;83.90
3550;DHT22;45572;48.804;8.330;2022-12-18T10:11:55;-2.50;84.20
3550;DHT22;45572;48.804;8.330;2022-12-18T10:14:32;-2.60;84.10
3550;DHT22;45572;48.804;8.330;2022-12-18T10:17:08;-2.80;84.40
3550;DHT22;45572;48.804;8.330;2022-12-18T10:19:46;-2.70;85.00
3550;DHT22;45572;48.804;8.330;2022-12-18T10:22:26;-2.60;85.00
3550;DHT22;45572;48.804;8.330;2022-12-18T10:25:03;-2.50;84.90
3550;DHT22;45572;48.804;8.330;2022-12-18T10:27:33;-2.80;84.70
3550;DHT22;45572;48.804;8.330;2022-12-18T10:30:07;-3.40;86.00
3550;DHT22;45572;48.804;8.330;2022-12-18T10:32:41;-3.40;87.00
3550;DHT22;45572;48.804;8.330;2022-12-18T10:35:17;-3.30;86.90
3550;DHT22;45572;48.804;8.330;2022-12-18T10:38:02;-3.20;86.80
3550;DHT22;45572;48.804;8.330;2022-12-18T10:40:31;-3.00;86.80
3550;DHT22;45572;48.804;8.330;2022-12-18T10:43:04;-2.80;86.10
3550;DHT22;45572;48.804;8.330;2022-12-18T10:45:33;-3.00;85.10
3550;DHT22;45572;48.804;8.330;2022-12-18T10:48:01;-3.30;85.90
3550;DHT22;45572;48.804;8.330;2022-12-18T10:50:33;-3.20;86.20
3550;DHT22;45572;48.804;8.330;2022-12-18T10:53:22;-3.20;86.10
3550;DHT22;45572;48.804;8.330;2022-12-18T10:55:52;-3.30;86.80
3550;DHT22;45572;48.804;8.330;2022-12-18T10:58:25;-3.20;87.10
3550;DHT22;45572;48.804;8.330;2022-12-18T11:01:04;-2.80;86.30
3550;DHT22;45572;48.804;8.330;2022-12-18T11:03:35;-2.80;86.00
3550;DHT22;45572;48.804;8.330;2022-12-18T11:06:08;-2.60;85.90
3550;DHT22;45572;48.804;8.330;2022-12-18T11:08:37;-2.30;85.80
3550;DHT22;45572;48.804;8.330;2022-12-18T11:11:14;-2.20;84.80
3550;DHT22;45572;48.804;8.330;2022-12-18T11:13:55;-2.10;84.40
3550;DHT22;45572;48.804;8.330;2022-12-18T11:16:25;-2.00;83.80
3550;DHT22;45572;48.804;8.330;2022-12-18T11:18:53;-2.10;83.70
3550;DHT22;45572;48.804;8.330;2022-12-18T11:21:23;-2.00;83.90
3550;DHT22;45572;48.804;8.330;2022-12-18T11:23:52;-1.90;83.90
3550;DHT22;45572;48.804;8.330;2022-12-18T11:26:20;-1.80;83.50
3550;DHT22;45572;48.804;8.330;2022-12-18T11:28:52;-1.90;82.40
3550;DHT22;45572;48.804;8.330;2022-12-18T11:31:24;-2.20;83.20
3550;DHT22;45572;48.804;8.330;2022-12-18T11:33:57;-2.10;84.60
3550;DHT22;45572;48.804;8.330;2022-12-18T11:36:48;-1.80;84.10
3550;DHT22;45572;48.804;8.330;2022-12-18T11:39:18;-1.90;83.40
3550;DHT22;45572;48.804;8.330;2022-12-18T11:41:52;-2.00;83.60
3550;DHT22;45572;48.804;8.330;2022-12-18T11:44:40;-2.10;83.90
3550;DHT22;45572;48.804;8.330;2022-12-18T11:47:15;-2.20;84.10
3550;DHT22;45572;48.804;8.330;2022-12-18T11:49:49;-2.20;84.20
3550;DHT22;45572;48.804;8.330;2022-12-18T11:52:21;-2.30;84.00
3550;DHT22;45572;48.804;8.330;2022-12-18T11:54:51;-2.30;83.90
3550;DHT22;45572;48.804;8.330;2022-12-18T11:57:30;-2.30;84.20
3550;DHT22;45572;48.804;8.330;2022-12-18T12:00:07;-2.10;84.60
3550;DHT22;45572;48.804;8.330;2022-12-18T12:02:55;-1.90;84.70
3550;DHT22;45572;48.804;8.330;2022-12-18T12:05:41;-1.70;84.60
3550;DHT22;45572;48.804;8.330;2022-12-18T12:08:18;-1.70;83.90
3550;DHT22;45572;48.804;8.330;2022-12-18T12:10:58;-1.70;83.80
3550;DHT22;45572;48.804;8.330;2022-12-18T12:13:39;-1.50;83.70
3550;DHT22;45572;48.804;8.330;2022-12-18T12:16:15;-1.30;83.10
3550;DHT22;45572;48.804;8.330;2022-12-18T12:18:53;-1.20;82.30
3550;DHT22;45572;48.804;8.330;2022-12-18T12:21:27;-1.10;81.90
3550;DHT22;45572;48.804;8.330;2022-12-18T12:24:05;-1.10;81.60
3550;DHT22;45572;48.804;8.330;2022-12-18T12:26:45;-1.10;81.50
3550;DHT22;45572;48.804;8.330;2022-12-18T12:29:28;-1.70;81.20
3550;DHT22;45572;48.804;8.330;2022-12-18T12:32:11;-1.90;83.30
3550;DHT22;45572;48.804;8.330;2022-12-18T12:34:51;-1.70;83.50
3550;DHT22;45572;48.804;8.330;2022-12-18T12:37:33;-1.70;82.90
3550;DHT22;45572;48.804;8.330;2022-12-18T12:40:06;-1.70;83.30
3550;DHT22;45572;48.804;8.330;2022-12-18T12:42:56;-1.50;83.20
3550;DHT22;45572;48.804;8.330;2022-12-18T12:45:42;-2.10;83.30
3550;DHT22;45572;48.804;8.330;2022-12-18T12:48:28;-2.10;84.20
3550;DHT22;45572;48.804;8.330;2022-12-18T12:51:01;-2.00;84.40
3550;DHT22;45572;48.804;8.330;2022-12-18T12:53:35;-2.30;84.80
3550;DHT22;45572;48.804;8.330;2022-12-18T12:56:09;-2.50;85.60
3550;DHT22;45572;48.804;8.330;2022-12-18T12:58:45;-2.60;86.20
3550;DHT22;45572;48.804;8.330;2022-12-18T13:01:20;-2.80;86.60
3550;DHT22;45572;48.804;8.330;2022-12-18T13:03:57;-3.20;87.10
3550;DHT22;45572;48.804;8.330;2022-12-18T13:06:36;-3.20;88.20
3550;DHT22;45572;48.804;8.330;2022-12-18T13:09:10;-3.10;88.30
3550;DHT22;45572;48.804;8.330;2022-12-18T13:11:41;-3.60;88.30
3550;DHT22;45572;48.804;8.330;2022-12-18T13:14:43;-3.70;89.50
3550;DHT22;45572;48.804;8.330;2022-12-18T13:17:15;-3.50;90.20
3550;DHT22;45572;48.804;8.330;2022-12-18T13:19:44;-3.20;89.90
3550;DHT22;45572;48.804;8.330;2022-12-18T13:22:21;-3.10;89.60
3550;DHT22;45572;48.804;8.330;2022-12-18T13:25:01;-2.80;88.80
3550;DHT22;45572;48.804;8.330;2022-12-18T13:27:49;-2.70;88.40
3550;DHT22;45572;48.804;8.330;2022-12-18T13:30:45;-2.80;88.40
3550;DHT22;45572;48.804;8.330;2022-12-18T13:33:37;-2.70;88.40
3550;DHT22;45572;48.804;8.330;2022-12-18T13:36:28;-2.90;88.20
3550;DHT22;45572;48.804;8.330;2022-12-18T13:39:20;-2.80;88.30
3550;DHT22;45572;48.804;8.330;2022-12-18T13:48:18;-2.70;87.90
3550;DHT22;45572;48.804;8.330;2022-12-18T13:50:49;-2.60;88.20
3550;DHT22;45572;48.804;8.330;2022-12-18T13:53:23;-2.50;88.10
3550;DHT22;45572;48.804;8.330;2022-12-18T13:55:51;-2.30;88.00
3550;DHT22;45572;48.804;8.330;2022-12-18T13:58:19;-2.20;87.80
3550;DHT22;45572;48.804;8.330;2022-12-18T14:00:48;-2.20;87.30
3550;DHT22;45572;48.804;8.330;2022-12-18T14:03:21;-2.10;87.00
3550;DHT22;45572;48.804;8.330;2022-12-18T14:05:54;-2.10;86.80
3550;DHT22;45572;48.804;8.330;2022-12-18T14:08:23;-2.10;86.80
3550;DHT22;45572;48.804;8.330;2022-12-18T14:10:53;-2.20;87.00
3550;DHT22;45572;48.804;8.330;2022-12-18T14:13:29;-2.20;87.20
3550;DHT22;45572;48.804;8.330;2022-12-18T14:16:00;-2.30;87.30
3550;DHT22;45572;48.804;8.330;2022-12-18T14:18:36;-2.40;87.70
3550;DHT22;45572;48.804;8.330;2022-12-18T14:21:06;-2.40;88.00
3550;DHT22;45572;48.804;8.330;2022-12-18T14:23:43;-2.50;88.20
3550;DHT22;45572;48.804;8.330;2022-12-18T14:26:27;-2.50;88.20
3550;DHT22;45572;48.804;8.330;2022-12-18T14:28:57;-2.50;88.30
3550;DHT22;45572;48.804;8.330;2022-12-18T14:31:30;-2.50;88.40
3550;DHT22;45572;48.804;8.330;2022-12-18T14:33:59;-2.50;88.30
3550;DHT22;45572;48.804;8.330;2022-12-18T14:36:28;-2.50;88.30
3550;DHT22;45572;48.804;8.330;2022-12-18T14:38:58;-2.60;88.40
3550;DHT22;45572;48.804;8.330;2022-12-18T14:41:26;-2.60;88.40
3550;DHT22;45572;48.804;8.330;2022-12-18T14:43:55;-2.70;88.40
3550;DHT22;45572;48.804;8.330;2022-12-18T14:46:34;-2.70;88.50
3550;DHT22;45572;48.804;8.330;2022-12-18T14:49:17;-2.70;88.60
3550;DHT22;45572;48.804;8.330;2022-12-18T14:51:47;-2.70;88.70
3550;DHT22;45572;48.804;8.330;2022-12-18T14:54:17;-2.80;88.70
3550;DHT22;45572;48.804;8.330;2022-12-18T14:56:48;-2.80;88.90
3550;DHT22;45572;48.804;8.330;2022-12-18T14:59:20;-2.80;88.80
3550;DHT22;45572;48.804;8.330;2022-12-18T15:01:57;-2.80;88.80
3550;DHT22;45572;48.804;8.330;2022-12-18T15:04:31;-2.80;88.80
3550;DHT22;45572;48.804;8.330;2022-12-18T15:07:06;-2.80;88.70
3550;DHT22;45572;48.804;8.330;2022-12-18T15:09:36;-2.90;89.00
3550;DHT22;45572;48.804;8.330;2022-12-18T15:12:04;-2.90;89.10
3550;DHT22;45572;48.804;8.330;2022-12-18T15:14:35;-2.90;89.10
3550;DHT22;45572;48.804;8.330;2022-12-18T15:17:16;-3.00;89.20
3550;DHT22;45572;48.804;8.330;2022-12-18T15:19:47;-3.00;89.40
3550;DHT22;45572;48.804;8.330;2022-12-18T15:22:20;-3.10;89.50
3550;DHT22;45572;48.804;8.330;2022-12-18T15:25:03;-3.20;89.80
3550;DHT22;45572;48.804;8.330;2022-12-18T15:27:47;-3.20;89.80
3550;DHT22;45572;48.804;8.330;2022-12-18T15:30:20;-3.20;89.80
3550;DHT22;45572;48.804;8.330;2022-12-18T15:32:49;-3.30;89.80
3550;DHT22;45572;48.804;8.330;2022-12-18T15:35:21;-3.40;90.10
3550;DHT22;45572;48.804;8.330;2022-12-18T15:37:50;-3.40;90.20
3550;DHT22;45572;48.804;8.330;2022-12-18T15:40:19;-3.40;90.40
3550;DHT22;45572;48.804;8.330;2022-12-18T15:42:48;-3.30;90.50
3550;DHT22;45572;48.804;8.330;2022-12-18T15:45:30;-3.30;90.50
3550;DHT22;45572;48.804;8.330;2022-12-18T15:47:58;-3.30;90.60
3550;DHT22;45572;48.804;8.330;2022-12-18T15:50:27;-3.40;90.70
3550;DHT22;45572;48.804;8.330;2022-12-18T15:52:56;-3.30;90.90
3550;DHT22;45572;48.804;8.330;2022-12-18T15:55:24;-3.40;90.40
3550;DHT22;45572;48.804;8.330;2022-12-18T15:58:09;-3.60;90.30
3550;DHT22;45572;48.804;8.330;2022-12-18T16:00:39;-3.50;90.50
3550;DHT22;45572;48.804;8.330;2022-12-18T16:03:08;-3.60;90.60
3550;DHT22;45572;48.804;8.330;2022-12-18T16:05:38;-3.50;90.70
3550;DHT22;45572;48.804;8.330;2022-12-18T16:08:06;-3.40;90.70
3550;DHT22;45572;48.804;8.330;2022-12-18T16:10:35;-3.40;90.60
3550;DHT22;45572;48.804;8.330;2022-12-18T16:13:02;-3.40;90.70
3550;DHT22;45572;48.804;8.330;2022-12-18T16:15:30;-3.40;90.70
3550;DHT22;45572;48.804;8.330;2022-12-18T16:17:58;-3.30;90.90
3550;DHT22;45572;48.804;8.330;2022-12-18T16:20:25;-3.20;90.90
3550;DHT22;45572;48.804;8.330;2022-12-18T16:22:54;-3.30;90.70